createdAt,value
2022-09-28T00:03:07.078Z,94.73
2022-09-28T00:05:34.261Z,95.31
2022-09-28T00:08:01.371Z,97.41
2022-09-28T00:10:28.262Z,97.26
2022-09-28T00:12:57.949Z,98.12
2022-09-28T00:15:24.915Z,97.61
2022-09-28T00:17:51.861Z,97.41
2022-09-28T00:20:19.917Z,95.90
2022-09-28T00:22:46.844Z,96.00
2022-09-28T00:25:13.789Z,96.72
2022-09-28T00:27:40.736Z,96.74
2022-09-28T00:30:08.492Z,97.03
2022-09-28T00:32:35.749Z,95.27
2022-09-28T00:35:02.737Z,95.68
2022-09-28T00:37:29.688Z,95.66
2022-09-28T00:39:56.623Z,96.07
2022-09-28T00:42:25.910Z,96.14
2022-09-28T00:44:54.995Z,96.76
2022-09-28T00:47:46.793Z,97.65
2022-09-28T00:50:46.299Z,98.13
2022-09-28T00:53:26.737Z,97.68
2022-09-28T00:56:00.731Z,98.33
2022-09-28T00:58:32.280Z,98.96
2022-09-28T01:01:00.468Z,99.16
2022-09-28T01:03:28.999Z,99.30
2022-09-28T01:05:59.291Z,98.87
2022-09-28T01:08:28.131Z,98.07
2022-09-28T01:10:55.144Z,97.86
2022-09-28T01:13:24.753Z,97.45
2022-09-28T01:16:08.300Z,97.23
2022-09-28T01:18:47.579Z,96.03
2022-09-28T01:21:20.973Z,94.05
2022-09-28T01:24:00.464Z,93.58
2022-09-28T01:26:51.661Z,94.30
2022-09-28T01:29:47.600Z,95.08
2022-09-28T01:32:23.383Z,95.12
2022-09-28T01:35:00.093Z,96.66
2022-09-28T01:37:43.154Z,97.17
2022-09-28T01:40:11.732Z,98.30
2022-09-28T01:42:42.392Z,97.57
2022-09-28T01:45:23.173Z,97.31
2022-09-28T01:47:51.426Z,96.88
2022-09-28T01:50:22.923Z,97.01
2022-09-28T01:53:04.303Z,96.89
2022-09-28T01:55:37.531Z,96.45
2022-09-28T01:58:24.215Z,97.00
2022-09-28T02:00:59.624Z,97.46
2022-09-28T02:03:42.556Z,97.78
2022-09-28T02:06:20.361Z,98.45
2022-09-28T02:08:54.108Z,98.93
2022-09-28T02:11:22.637Z,99.02
2022-09-28T02:14:04.695Z,98.97
2022-09-28T02:16:42.582Z,97.87
2022-09-28T02:19:13.935Z,97.18
2022-09-28T02:22:08.579Z,96.92
2022-09-28T02:25:04.572Z,98.27
2022-09-28T02:27:35.668Z,98.67
2022-09-28T02:30:04.408Z,97.87
2022-09-28T02:32:34.633Z,99.39
2022-09-28T02:35:01.715Z,98.92
2022-09-28T02:37:28.774Z,98.88
2022-09-28T02:39:55.764Z,99.05
2022-09-28T02:42:34.678Z,100.00
2022-09-28T02:45:19.935Z,99.86
2022-09-28T02:48:08.534Z,100.00
2022-09-28T02:50:57.703Z,100.00
2022-09-28T02:53:52.044Z,100.00
2022-09-28T02:56:56.223Z,100.00
2022-09-28T02:59:38.572Z,99.99
2022-09-28T03:02:14.656Z,99.33
2022-09-28T03:04:44.505Z,99.17
2022-09-28T03:07:34.538Z,98.04
2022-09-28T03:10:19.481Z,97.89
2022-09-28T03:12:49.054Z,98.18
2022-09-28T03:15:33.695Z,97.32
2022-09-28T03:18:00.974Z,97.01
2022-09-28T03:20:29.271Z,97.87
2022-09-28T03:23:22.858Z,97.69
2022-09-28T03:25:43.503Z,99.52
2022-09-28T03:28:10.292Z,100.00
2022-09-28T03:30:37.210Z,100.00
2022-09-28T03:33:04.678Z,100.00
2022-09-28T03:35:31.577Z,100.00
2022-09-28T03:37:58.430Z,100.00
2022-09-28T03:40:25.751Z,100.00
2022-09-28T03:42:52.681Z,100.00
2022-09-28T03:45:19.676Z,99.86
2022-09-28T03:47:47.144Z,99.91
2022-09-28T03:50:14.502Z,100.00
2022-09-28T03:52:44.550Z,100.00
2022-09-28T03:55:11.822Z,100.00
2022-09-28T03:57:44.219Z,100.00
2022-09-28T04:00:11.506Z,100.00
2022-09-28T04:02:38.453Z,100.00
2022-09-28T04:05:05.792Z,100.00
2022-09-28T04:07:32.774Z,99.78
2022-09-28T04:09:59.733Z,99.65
2022-09-28T04:12:29.253Z,99.32
2022-09-28T04:14:56.218Z,99.30
2022-09-28T04:17:23.116Z,99.25
2022-09-28T04:19:49.970Z,98.78
2022-09-28T04:22:16.870Z,98.93
2022-09-28T04:24:43.798Z,98.48
2022-09-28T04:27:29.104Z,98.63
2022-09-28T04:29:55.998Z,98.75
2022-09-28T04:32:23.026Z,99.38
2022-09-28T04:34:50.121Z,99.95
2022-09-28T04:37:17.041Z,100.00
2022-09-28T04:39:47.575Z,100.00
2022-09-28T04:42:16.108Z,100.00
2022-09-28T04:44:43.152Z,100.00
2022-09-28T04:47:10.088Z,100.00
2022-09-28T04:49:38.549Z,100.00
2022-09-28T04:52:10.975Z,100.00
2022-09-28T04:54:39.511Z,100.00
2022-09-28T04:57:06.609Z,100.00
2022-09-28T04:59:35.978Z,100.00
2022-09-28T05:02:02.947Z,100.00
2022-09-28T05:04:30.913Z,100.00
2022-09-28T05:06:58.212Z,100.00
2022-09-28T05:09:25.001Z,100.00
2022-09-28T05:12:00.871Z,100.00
2022-09-28T05:14:27.814Z,100.00
2022-09-28T05:16:54.803Z,100.00
2022-09-28T05:19:21.659Z,100.00
2022-09-28T05:21:49.302Z,100.00
2022-09-28T05:24:16.102Z,100.00
2022-09-28T05:26:42.971Z,100.00
2022-09-28T05:29:09.802Z,100.00
2022-09-28T05:31:36.646Z,100.00
2022-09-28T05:34:03.602Z,100.00
2022-09-28T05:36:32.602Z,100.00
2022-09-28T05:38:59.557Z,100.00
2022-09-28T05:41:26.476Z,100.00
2022-09-28T05:43:55.088Z,99.78
2022-09-28T05:46:23.975Z,99.07
2022-09-28T05:48:52.846Z,99.83
2022-09-28T05:51:19.708Z,100.00
2022-09-28T05:53:47.047Z,98.82
2022-09-28T05:56:14.039Z,99.50
2022-09-28T05:58:40.922Z,99.57
2022-09-28T06:01:07.825Z,99.41
2022-09-28T06:03:34.911Z,99.80
2022-09-28T06:06:02.768Z,100.00
2022-09-28T06:08:32.310Z,100.00
2022-09-28T06:11:01.378Z,100.00
2022-09-28T06:13:29.358Z,100.00
2022-09-28T06:15:56.476Z,98.66
2022-09-28T06:18:23.488Z,99.23
2022-09-28T06:20:50.393Z,97.92
2022-09-28T06:23:17.365Z,98.20
2022-09-28T06:25:44.330Z,96.83
2022-09-28T06:28:13.405Z,96.84
2022-09-28T06:30:41.632Z,97.12
2022-09-28T06:33:12.722Z,96.97
2022-09-28T06:35:40.863Z,95.97
2022-09-28T06:38:08.558Z,95.55
2022-09-28T06:40:36.473Z,95.89
2022-09-28T06:43:10.693Z,93.95
2022-09-28T06:45:38.785Z,94.50
2022-09-28T06:48:06.703Z,92.03
2022-09-28T06:50:39.714Z,85.79
2022-09-28T06:53:09.613Z,85.18
2022-09-28T06:55:39.893Z,84.13
2022-09-28T06:58:10.787Z,83.73
2022-09-28T07:00:41.682Z,84.37
2022-09-28T07:03:12.894Z,85.50
2022-09-28T07:05:46.311Z,87.78
2022-09-28T07:08:13.644Z,86.53
2022-09-28T07:10:45.704Z,85.67
2022-09-28T07:13:36.145Z,86.92
2022-09-28T07:16:01.909Z,86.63
2022-09-28T07:18:30.069Z,86.21
2022-09-28T07:20:57.609Z,86.53
2022-09-28T07:23:28.734Z,86.57
2022-09-28T07:25:55.745Z,85.97
2022-09-28T07:28:22.643Z,86.16
2022-09-28T07:30:50.126Z,87.40
2022-09-28T07:33:17.797Z,87.29
2022-09-28T07:35:55.557Z,87.21
2022-09-28T07:38:23.027Z,89.19
2022-09-28T07:41:08.749Z,88.30
2022-09-28T07:43:35.772Z,87.33
2022-09-28T07:46:02.712Z,87.34
2022-09-28T07:48:38.051Z,87.70
2022-09-28T07:51:05.373Z,87.07
2022-09-28T07:53:32.259Z,86.37
2022-09-28T07:56:10.163Z,87.59
2022-09-28T07:58:38.665Z,86.18
2022-09-28T08:01:10.984Z,86.59
2022-09-28T08:03:38.442Z,85.87
2022-09-28T08:06:09.941Z,84.82
2022-09-28T08:08:37.210Z,84.49
2022-09-28T08:11:07.014Z,82.36
2022-09-28T08:13:33.891Z,82.60
2022-09-28T08:16:02.132Z,81.04
2022-09-28T08:18:29.344Z,79.51
2022-09-28T08:21:14.765Z,79.41
2022-09-28T08:23:41.692Z,75.10
2022-09-28T08:26:13.310Z,71.40
2022-09-28T08:28:43.599Z,67.83
2022-09-28T08:31:10.633Z,67.10
2022-09-28T08:33:38.779Z,66.80
2022-09-28T08:36:06.291Z,65.09
2022-09-28T08:38:33.555Z,62.64
2022-09-28T08:41:18.623Z,65.38
2022-09-28T08:44:00.734Z,67.39
2022-09-28T08:46:37.258Z,69.66
2022-09-28T08:49:24.061Z,69.54
2022-09-28T08:51:58.307Z,70.30
2022-09-28T08:54:34.178Z,73.67
2022-09-28T08:57:12.807Z,73.36
2022-09-28T08:59:51.555Z,73.63
2022-09-28T09:02:42.883Z,72.24
2022-09-28T09:05:17.235Z,71.42
2022-09-28T09:08:02.714Z,73.62
2022-09-28T09:10:46.074Z,74.31
2022-09-28T09:13:33.906Z,73.57
2022-09-28T09:16:30.535Z,72.81
2022-09-28T09:19:09.219Z,74.33
2022-09-28T09:22:05.457Z,72.49
2022-09-28T09:24:39.010Z,71.03
2022-09-28T09:27:14.597Z,68.88
2022-09-28T09:29:56.756Z,67.16
2022-09-28T09:32:59.886Z,64.08
2022-09-28T09:35:56.599Z,63.38
2022-09-28T09:38:44.684Z,66.70
2022-09-28T09:41:44.383Z,67.13
2022-09-28T09:44:16.910Z,68.85
2022-09-28T09:47:08.017Z,67.90
2022-09-28T09:49:37.841Z,67.42
2022-09-28T09:55:14.592Z,68.80
2022-09-28T09:57:47.383Z,68.07
2022-09-28T10:00:15.886Z,67.87
2022-09-28T10:02:45.766Z,66.86
2022-09-28T10:05:12.701Z,67.89
2022-09-28T10:08:03.234Z,67.14
2022-09-28T10:10:38.082Z,66.15
2022-09-28T10:13:05.570Z,67.78
2022-09-28T10:15:36.332Z,65.72
2022-09-28T10:18:13.588Z,66.66
2022-09-28T10:20:42.912Z,65.91
2022-09-28T10:23:22.886Z,66.57
2022-09-28T10:25:54.383Z,64.86
2022-09-28T10:28:53.514Z,64.10
2022-09-28T10:31:40.489Z,64.20
2022-09-28T10:34:10.883Z,65.61
2022-09-28T10:36:52.090Z,63.57
2022-09-28T10:39:46.162Z,62.03
2022-09-28T10:42:18.390Z,63.31
2022-09-28T10:45:03.198Z,62.23
2022-09-28T10:47:32.814Z,62.71
2022-09-28T10:50:01.057Z,63.11
2022-09-28T10:52:32.547Z,63.74
2022-09-28T10:54:59.655Z,64.53
2022-09-28T10:57:37.018Z,64.82
2022-09-28T11:00:27.363Z,63.90
2022-09-28T11:02:54.396Z,63.22
2022-09-28T11:05:27.958Z,64.04
2022-09-28T11:07:57.180Z,63.42
2022-09-28T11:10:26.805Z,62.47
2022-09-28T11:12:54.615Z,63.11
2022-09-28T11:15:33.919Z,61.47
2022-09-28T11:18:31.716Z,61.93
2022-09-28T11:21:12.233Z,64.15
2022-09-28T11:23:41.632Z,64.80
2022-09-28T11:26:09.649Z,65.41
2022-09-28T11:28:38.392Z,66.01
2022-09-28T11:31:08.125Z,64.33
2022-09-28T11:33:46.190Z,64.37
2022-09-28T11:36:18.380Z,66.00
2022-09-28T11:39:11.430Z,65.72
2022-09-28T11:41:53.064Z,65.61
2022-09-28T11:44:44.955Z,65.84
2022-09-28T11:47:36.131Z,66.69
2022-09-28T11:50:24.807Z,67.05
2022-09-28T11:53:04.159Z,65.72
2022-09-28T11:56:00.355Z,65.62
2022-09-28T11:58:33.275Z,68.00
2022-09-28T12:01:22.652Z,67.34
2022-09-28T12:04:00.962Z,66.45
2022-09-28T12:06:37.657Z,68.23
2022-09-28T12:09:22.511Z,68.60
2022-09-28T12:11:56.012Z,68.76
2022-09-28T12:14:38.771Z,68.37
2022-09-28T12:17:23.856Z,70.37
2022-09-28T12:20:13.834Z,67.06
2022-09-28T12:23:08.131Z,67.46
2022-09-28T12:25:46.472Z,68.16
2022-09-28T12:28:23.612Z,67.47
2022-09-28T12:30:51.606Z,69.12
2022-09-28T12:33:18.670Z,68.79
2022-09-28T12:35:57.202Z,68.23
2022-09-28T12:38:54.114Z,68.29
2022-09-28T12:41:58.510Z,68.75
2022-09-28T12:44:52.892Z,68.13
2022-09-28T12:47:46.382Z,68.55
2022-09-28T12:50:41.095Z,68.71
2022-09-28T12:53:21.756Z,69.63
2022-09-28T12:56:03.433Z,69.41
2022-09-28T12:58:36.871Z,69.34
2022-09-28T13:01:31.252Z,69.25
2022-09-28T13:04:22.924Z,70.17
2022-09-28T13:07:13.938Z,69.95
2022-09-28T13:10:01.543Z,70.06
2022-09-28T13:12:39.360Z,70.20
2022-09-28T13:15:17.789Z,72.29
2022-09-28T13:17:56.583Z,71.55
2022-09-28T13:20:52.150Z,70.79
2022-09-28T13:23:23.873Z,70.55
2022-09-28T13:25:57.230Z,70.68
2022-09-28T13:28:27.341Z,70.58
2022-09-28T13:31:00.389Z,71.63
2022-09-28T13:33:36.190Z,72.46
2022-09-28T13:36:24.034Z,71.83
2022-09-28T13:38:52.493Z,72.48
2022-09-28T13:41:40.680Z,72.98
2022-09-28T13:44:10.232Z,72.29
2022-09-28T13:47:01.065Z,72.73
2022-09-28T13:50:06.111Z,72.61
2022-09-28T13:52:44.442Z,72.68
2022-09-28T13:55:23.805Z,72.95
2022-09-28T13:57:50.580Z,72.70
2022-09-28T14:00:33.582Z,73.09
2022-09-28T14:03:06.371Z,73.22
2022-09-28T14:06:11.142Z,72.22
2022-09-28T14:09:13.221Z,72.70
2022-09-28T14:11:42.592Z,73.25
2022-09-28T14:14:14.001Z,75.26
2022-09-28T14:16:42.532Z,77.13
2022-09-28T14:19:22.509Z,77.83
2022-09-28T14:22:04.421Z,77.69
2022-09-28T14:24:46.575Z,77.62
2022-09-28T14:27:32.660Z,78.31
2022-09-28T14:30:07.235Z,78.87
2022-09-28T14:32:37.164Z,78.83
2022-09-28T14:35:18.723Z,78.93
2022-09-28T14:38:07.863Z,78.66
2022-09-28T14:41:11.693Z,79.36
2022-09-28T14:43:44.552Z,79.78
2022-09-28T14:46:17.532Z,79.41
2022-09-28T14:48:48.531Z,79.68
2022-09-28T14:51:27.632Z,80.47
2022-09-28T14:54:00.460Z,80.14
2022-09-28T14:56:32.848Z,81.20
2022-09-28T14:59:00.783Z,81.61
2022-09-28T15:01:30.877Z,82.37
2022-09-28T15:04:04.796Z,82.14
2022-09-28T15:06:46.443Z,84.01
2022-09-28T15:09:34.680Z,83.63
2022-09-28T15:12:29.845Z,83.87
2022-09-28T15:14:59.597Z,84.18
2022-09-28T15:17:39.745Z,84.74
2022-09-28T15:20:17.315Z,85.58
2022-09-28T15:22:50.172Z,86.18
2022-09-28T15:25:20.229Z,86.02
2022-09-28T15:28:04.806Z,86.65
2022-09-28T15:30:33.581Z,87.37
2022-09-28T15:33:21.101Z,87.93
2022-09-28T15:36:02.210Z,88.87
2022-09-28T15:38:31.616Z,88.45
2022-09-28T15:40:58.852Z,88.79
2022-09-28T15:43:29.457Z,89.63
2022-09-28T15:46:07.094Z,90.19
2022-09-28T15:48:51.412Z,89.98
2022-09-28T15:51:23.360Z,90.43
2022-09-28T15:54:11.142Z,91.69
2022-09-28T15:56:59.934Z,93.63
2022-09-28T15:59:35.806Z,93.41
2022-09-28T16:02:10.812Z,95.23
2022-09-28T16:04:55.375Z,96.20
2022-09-28T16:07:41.842Z,95.53
2022-09-28T16:10:11.530Z,95.80
2022-09-28T16:12:38.290Z,95.53
2022-09-28T16:15:18.427Z,96.86
2022-09-28T16:17:51.279Z,96.37
2022-09-28T16:20:23.361Z,96.44
2022-09-28T16:22:50.988Z,97.32
2022-09-28T16:25:24.869Z,97.77
2022-09-28T16:27:55.769Z,98.46
2022-09-28T16:30:32.602Z,98.23
2022-09-28T16:33:03.858Z,98.37
2022-09-28T16:35:53.970Z,98.57
2022-09-28T16:38:21.251Z,98.07
2022-09-28T16:40:50.755Z,98.63
2022-09-28T16:43:28.939Z,99.29
2022-09-28T16:46:00.844Z,99.97
2022-09-28T16:48:30.554Z,100.00
2022-09-28T16:50:58.084Z,100.00
2022-09-28T16:53:44.064Z,100.00
2022-09-28T16:56:12.586Z,100.00
2022-09-28T16:58:39.518Z,100.00
2022-09-28T17:01:09.943Z,100.00
2022-09-28T17:03:37.075Z,100.00
2022-09-28T17:06:06.414Z,100.00
2022-09-28T17:08:35.738Z,100.00
2022-09-28T17:11:14.913Z,100.00
2022-09-28T17:13:46.061Z,100.00
2022-09-28T17:16:58.188Z,100.00
2022-09-28T17:19:25.102Z,100.00
2022-09-28T17:21:53.185Z,100.00
2022-09-28T17:24:20.697Z,100.00
2022-09-28T17:26:50.131Z,100.00
2022-09-28T17:29:17.010Z,100.00
2022-09-28T17:31:45.237Z,100.00
2022-09-28T17:34:16.397Z,100.00
2022-09-28T17:36:44.865Z,100.00
2022-09-28T17:39:17.124Z,100.00
2022-09-28T17:41:44.400Z,100.00
2022-09-28T17:44:15.211Z,100.00
2022-09-28T17:46:49.832Z,100.00
2022-09-28T17:49:17.166Z,100.00
2022-09-28T17:51:44.132Z,100.00
2022-09-28T17:54:11.254Z,100.00
2022-09-28T17:56:38.093Z,100.00
2022-09-28T17:59:07.917Z,100.00
2022-09-28T18:01:38.379Z,100.00
2022-09-28T18:04:08.353Z,100.00
2022-09-28T18:06:37.320Z,100.00
2022-09-28T18:09:05.341Z,100.00
2022-09-28T18:11:33.570Z,100.00
2022-09-28T18:14:01.425Z,100.00
2022-09-28T18:16:29.216Z,100.00
2022-09-28T18:18:56.430Z,100.00
2022-09-28T18:21:23.392Z,100.00
2022-09-28T18:23:50.430Z,100.00
2022-09-28T18:26:19.722Z,100.00
2022-09-28T18:28:47.005Z,100.00
2022-09-28T18:31:16.054Z,100.00
2022-09-28T18:33:43.589Z,100.00
2022-09-28T18:36:10.864Z,100.00
2022-09-28T18:38:38.747Z,100.00
2022-09-28T18:41:16.095Z,100.00
2022-09-28T18:43:50.461Z,100.00
2022-09-28T18:46:18.671Z,100.00
2022-09-28T18:48:47.937Z,100.00
2022-09-28T18:51:14.870Z,100.00
2022-09-28T18:53:42.040Z,100.00
2022-09-28T18:56:13.155Z,100.00
2022-09-28T18:58:41.861Z,100.00
2022-09-28T19:01:31.398Z,100.00
2022-09-28T19:04:00.623Z,100.00
2022-09-28T19:06:27.911Z,100.00
2022-09-28T19:08:56.340Z,100.00
2022-09-28T19:11:24.336Z,100.00
2022-09-28T19:13:53.740Z,100.00
2022-09-28T19:16:28.878Z,100.00
2022-09-28T19:18:57.178Z,100.00
2022-09-28T19:21:24.671Z,100.00
2022-09-28T19:23:54.058Z,100.00
2022-09-28T19:26:27.098Z,100.00
2022-09-28T19:28:56.423Z,100.00
2022-09-28T19:31:23.823Z,100.00
2022-09-28T19:33:50.934Z,100.00
2022-09-28T19:36:22.078Z,100.00
2022-09-28T19:38:49.305Z,100.00
2022-09-28T19:41:49.649Z,100.00
2022-09-28T19:44:25.841Z,100.00
2022-09-28T19:46:57.895Z,100.00
2022-09-28T19:49:26.882Z,100.00
2022-09-28T19:52:14.950Z,100.00
2022-09-28T19:55:00.416Z,100.00
2022-09-28T19:57:32.934Z,100.00
2022-09-28T20:00:03.301Z,100.00
2022-09-28T20:02:31.032Z,100.00
2022-09-28T20:04:58.230Z,100.00
2022-09-28T20:07:25.070Z,100.00
2022-09-28T20:09:51.925Z,100.00
2022-09-28T20:12:19.161Z,100.00
2022-09-28T20:14:46.302Z,100.00
2022-09-28T20:17:13.281Z,100.00
2022-09-28T20:19:40.402Z,100.00
2022-09-28T20:22:07.570Z,100.00
2022-09-28T20:24:34.801Z,100.00
2022-09-28T20:27:01.850Z,100.00
2022-09-28T20:29:31.923Z,100.00
2022-09-28T20:31:59.106Z,100.00
2022-09-28T20:34:26.191Z,100.00
2022-09-28T20:36:53.312Z,100.00
2022-09-28T20:39:20.316Z,100.00
2022-09-28T20:41:49.296Z,100.00
2022-09-28T20:44:16.681Z,100.00
2022-09-28T20:46:44.328Z,100.00
2022-09-28T20:49:11.642Z,100.00
2022-09-28T20:51:38.412Z,100.00
2022-09-28T20:54:05.500Z,100.00
2022-09-28T20:56:38.046Z,98.41
2022-09-28T20:59:10.520Z,98.42
2022-09-28T21:01:38.307Z,97.86
2022-09-28T21:04:07.149Z,97.07
2022-09-28T21:06:36.244Z,97.05
2022-09-28T21:09:05.156Z,94.80
2022-09-28T21:11:33.207Z,94.48
2022-09-28T21:14:02.398Z,94.56
2022-09-28T21:16:32.666Z,93.04
2022-09-28T21:18:59.782Z,92.95
2022-09-28T21:21:26.732Z,92.57
2022-09-28T21:23:57.723Z,93.06
2022-09-28T21:26:27.400Z,93.74
2022-09-28T21:28:55.701Z,95.40
2022-09-28T21:31:28.845Z,95.65
2022-09-28T21:33:57.155Z,96.13
2022-09-28T21:36:24.923Z,96.53
2022-09-28T21:38:52.198Z,96.82
2022-09-28T21:41:19.130Z,96.25
2022-09-28T21:43:46.097Z,96.20
2022-09-28T21:46:13.826Z,96.97
2022-09-28T21:48:41.111Z,97.67
2022-09-28T21:51:10.359Z,97.68
2022-09-28T21:53:38.561Z,97.38
2022-09-28T21:56:07.827Z,97.26
2022-09-28T21:58:36.118Z,96.93
2022-09-28T22:01:07.145Z,96.47
2022-09-28T22:03:36.176Z,94.30
2022-09-28T22:06:06.570Z,94.11
2022-09-28T22:08:37.803Z,94.32
2022-09-28T22:11:09.951Z,94.32
2022-09-28T22:13:41.151Z,93.05
2022-09-28T22:16:08.920Z,93.63
2022-09-28T22:18:36.032Z,93.66
2022-09-28T22:21:10.034Z,92.03
2022-09-28T22:23:38.044Z,93.18
2022-09-28T22:26:19.254Z,92.66
2022-09-28T22:28:48.355Z,92.68
2022-09-28T22:31:16.672Z,92.46
2022-09-28T22:33:44.095Z,93.03
2022-09-28T22:36:11.413Z,92.53
2022-09-28T22:38:38.390Z,94.63
2022-09-28T22:41:05.358Z,96.12
2022-09-28T22:43:32.321Z,97.38
2022-09-28T22:46:11.331Z,94.07
2022-09-28T22:48:38.614Z,90.65
2022-09-28T22:51:06.930Z,87.34
2022-09-28T22:53:35.084Z,88.45
2022-09-28T22:56:05.481Z,85.44
2022-09-28T22:58:33.697Z,84.50
2022-09-28T23:01:18.951Z,83.77
2022-09-28T23:03:46.204Z,83.05
2022-09-28T23:06:16.715Z,83.39
2022-09-28T23:08:48.634Z,83.06
2022-09-28T23:11:16.027Z,81.70
2022-09-28T23:13:46.304Z,82.60
2022-09-28T23:16:15.004Z,82.48
2022-09-28T23:18:42.260Z,81.96
2022-09-28T23:21:15.561Z,81.57
2022-09-28T23:23:46.894Z,81.80
2022-09-28T23:26:19.473Z,80.33
2022-09-28T23:28:47.541Z,80.89
2022-09-28T23:31:18.005Z,79.52
2022-09-28T23:33:45.322Z,79.19
2022-09-28T23:36:12.331Z,78.79
2022-09-28T23:38:39.992Z,78.77
2022-09-28T23:41:07.479Z,79.02
2022-09-28T23:43:34.708Z,79.32
2022-09-28T23:46:02.051Z,79.11
2022-09-28T23:48:29.103Z,78.73
2022-09-28T23:50:56.042Z,79.47
2022-09-28T23:53:23.005Z,78.23
2022-09-28T23:55:49.820Z,78.47
2022-09-28T23:58:19.178Z,78.35
